Fragaria, Washington
Current Conditions -  °F | °C
As of 10:55 AM on Thursday 25 Dec 2014 (Local Time) from KPWT Reporting Station
Scattered Clouds Scattered Clouds  
Wind Chill: 41°   Ceiling: Unl
Heat Index: 41°   Visibility: 10mi
Dew Point: 41°   Wind: 3mph
Humidity: 100%   Direction: 280°W
Pressure: 30.23"   Gusts: NA
Location:  47.4285°N, 122.573°W
Report Text: KPWT 251855Z AUTO 28003KT 10SM SCT003 SCT022 05/05 A3023 RMK AO1
Loading
Personal Weather Stations






























Interactive Weather Map New forecast layout! Learn more

10-Day Weather Forecast

Advertisements
Track Severe Weather on mobile